Time;durP1;ratioP1;P1;durP2;ratioP2;P2;SDS_P1;SDS_P2;PMS_P1;PMS_P2;Temp;Humidity;BMP_temperature;BMP_pressure;BME280_temperature;BME280_humidity;BME280_pressure;Samples;Min_cycle;Max_cycle;Signal;HPM_P1;HPM_P2
2023/09/21 00:00:13;;;;;;;4.13;2.35;;;21.80;91.80;;;;;;5090824;28;20045;-74
2023/09/21 00:02:49;;;;;;;5.68;2.50;;;21.80;92.50;;;;;;5077225;28;20052;-75
2023/09/21 00:05:23;;;;;;;5.35;2.65;;;21.70;92.40;;;;;;5032288;28;20457;-73
2023/09/21 00:07:50;;;;;;;5.18;2.50;;;21.80;93.60;;;;;;5076578;28;20044;-73
2023/09/21 00:10:18;;;;;;;5.97;2.72;;;21.70;92.40;;;;;;5074850;28;20062;-73
2023/09/21 00:12:48;;;;;;;4.88;2.63;;;21.60;93.60;;;;;;5076396;28;20040;-74
2023/09/21 00:15:16;;;;;;;7.38;2.53;;;21.70;93.60;;;;;;5090914;28;20040;-74
2023/09/21 00:17:50;;;;;;;3.90;2.10;;;21.50;93.60;;;;;;5075287;28;20048;-73
2023/09/21 00:20:28;;;;;;;5.47;2.40;;;21.60;92.00;;;;;;5043825;28;20048;-73
2023/09/21 00:22:55;;;;;;;6.28;2.67;;;21.60;93.50;;;;;;5092198;28;20080;-72
2023/09/21 00:25:23;;;;;;;4.60;2.50;;;;;;;;;;5092614;28;20037;-73
2023/09/21 00:27:54;;;;;;;4.90;2.55;;;21.50;93.60;;;;;;5091735;28;20048;-73
2023/09/21 00:30:21;;;;;;;4.85;2.50;;;21.60;93.50;;;;;;5091463;28;20131;-73
2023/09/21 00:32:48;;;;;;;5.45;2.58;;;;;;;;;;5075152;28;20054;-73
2023/09/21 00:35:23;;;;;;;4.38;2.55;;;21.60;93.50;;;;;;5055702;28;20060;-73
2023/09/21 00:37:54;;;;;;;4.47;2.50;;;21.40;93.50;;;;;;5051284;28;20047;-73
2023/09/21 00:40:21;;;;;;;4.57;2.47;;;21.60;93.50;;;;;;5073408;28;20382;-73
2023/09/21 00:42:48;;;;;;;5.22;2.85;;;;;;;;;;5060118;28;20090;-73
2023/09/21 00:45:14;;;;;;;6.47;2.55;;;;;;;;;;5059711;28;20127;-62
2023/09/21 00:47:49;;;;;;;4.80;2.50;;;21.60;93.50;;;;;;5075624;28;20320;-75
2023/09/21 00:50:21;;;;;;;4.80;2.50;;;21.80;92.40;;;;;;5076021;28;20044;-74
2023/09/21 00:52:47;;;;;;;6.18;2.70;;;21.50;93.90;;;;;;5057339;28;20130;-76
2023/09/21 00:55:18;;;;;;;5.45;2.50;;;21.80;92.40;;;;;;5026412;28;20394;-75
2023/09/21 00:57:44;;;;;;;5.80;2.50;;;;;;;;;;5025898;28;20447;-73
2023/09/21 01:00:13;;;;;;;5.68;2.40;;;21.60;93.40;;;;;;5039675;28;20075;-73
2023/09/21 01:02:43;;;;;;;7.03;2.72;;;21.70;93.50;;;;;;5039976;28;20052;-75
2023/09/21 01:05:17;;;;;;;4.78;2.42;;;;;;;;;;5060292;28;20389;-75
2023/09/21 01:07:50;;;;;;;4.00;2.22;;;21.40;91.50;;;;;;5074561;28;20050;-74
2023/09/21 01:10:21;;;;;;;5.13;2.70;;;21.60;93.70;;;;;;5067342;28;20037;-74
2023/09/21 01:12:49;;;;;;;4.43;2.58;;;21.50;93.40;;;;;;5039828;28;20107;-75
2023/09/21 01:15:16;;;;;;;5.50;2.40;;;21.60;92.00;;;;;;5039736;28;20040;-76
2023/09/21 01:17:42;;;;;;;4.82;2.50;;;;;;;;;;5038938;28;20120;-75
2023/09/21 01:20:22;;;;;;;4.88;2.28;;;21.60;93.40;;;;;;5067250;28;20502;-74
2023/09/21 01:23:00;;;;;;;5.90;2.40;;;21.70;92.30;;;;;;5059277;28;20051;-74
2023/09/21 01:25:27;;;;;;;5.53;2.85;;;;;;;;;;5075105;28;20181;-75
2023/09/21 01:27:53;;;;;;;5.97;2.47;;;;;;;;;;5091554;28;20130;-75
2023/09/21 01:30:19;;;;;;;4.45;2.30;;;;;;;;;;5092420;28;20082;-74
2023/09/21 01:32:45;;;;;;;5.93;2.58;;;;;;;;;;5090016;28;20071;-74
2023/09/21 01:35:16;;;;;;;5.18;2.50;;;21.60;93.30;;;;;;5072465;28;20072;-74
2023/09/21 01:37:42;;;;;;;5.35;2.40;;;;;;;;;;5074739;28;20039;-74
2023/09/21 01:40:17;;;;;;;4.57;2.25;;;21.70;93.30;;;;;;5089926;28;20046;-74
2023/09/21 01:42:48;;;;;;;4.85;2.30;;;21.50;92.10;;;;;;5091178;28;20457;-62
2023/09/21 01:45:15;;;;;;;4.82;2.70;;;21.50;93.30;;;;;;5093304;28;20058;-63
2023/09/21 01:47:41;;;;;;;5.15;2.65;;;21.50;93.30;;;;;;5073879;28;20064;-73
2023/09/21 01:50:11;;;;;;;5.45;2.58;;;21.60;93.30;;;;;;5073511;28;20044;-73
2023/09/21 01:52:43;;;;;;;5.03;2.20;;;21.70;93.30;;;;;;5092926;28;20043;-73
2023/09/21 01:55:12;;;;;;;6.10;2.28;;;;;;;;;;5073990;28;20091;-74
2023/09/21 01:57:39;;;;;;;5.15;2.40;;;;;;;;;;5055298;28;20066;-63
2023/09/21 02:00:12;;;;;;;5.65;2.45;;;21.70;92.10;;;;;;5040733;28;20064;-73
2023/09/21 02:02:39;;;;;;;8.48;2.88;;;21.60;93.30;;;;;;5025716;28;20040;-74
2023/09/21 02:05:10;;;;;;;5.85;2.50;;;21.50;92.00;;;;;;5025537;28;20047;-74
2023/09/21 02:07:36;;;;;;;4.90;2.55;;;21.60;93.30;;;;;;5058477;28;20121;-74
2023/09/21 02:10:03;;;;;;;4.85;2.55;;;21.60;93.30;;;;;;5074406;28;20048;-74
2023/09/21 02:12:29;;;;;;;4.72;2.40;;;;;;;;;;5056372;28;20048;-75
2023/09/21 02:14:55;;;;;;;4.93;2.45;;;21.70;93.30;;;;;;5036612;28;20390;-73
2023/09/21 02:17:24;;;;;;;5.60;2.42;;;21.70;93.40;;;;;;5045172;28;20045;-73
2023/09/21 02:19:50;;;;;;;5.20;2.53;;;;;;;;;;5068161;28;20055;-70
2023/09/21 02:22:16;;;;;;;4.95;2.55;;;21.50;91.40;;;;;;5055121;28;20036;-73
2023/09/21 02:24:42;;;;;;;5.30;2.85;;;21.60;93.20;;;;;;5090116;28;20109;-73
2023/09/21 02:27:11;;;;;;;3.85;2.13;;;21.10;92.20;;;;;;5057601;28;20044;-70
2023/09/21 02:29:40;;;;;;;5.40;2.30;;;21.60;93.30;;;;;;5073789;28;20519;-71
2023/09/21 02:32:07;;;;;;;4.32;2.50;;;;;;;;;;5042681;28;20054;-72
2023/09/21 02:34:33;;;;;;;4.78;2.35;;;21.60;92.20;;;;;;5042405;28;20110;-73
2023/09/21 02:37:01;;;;;;;5.43;2.20;;;;;;;;;;5036684;28;20116;-73
2023/09/21 02:39:28;;;;;;;5.85;2.50;;;21.60;92.20;;;;;;5056103;28;20050;-73
2023/09/21 02:41:54;;;;;;;5.28;2.50;;;21.60;93.40;;;;;;5072247;28;20055;-72
2023/09/21 02:44:24;;;;;;;5.13;2.38;;;21.50;93.40;;;;;;5086043;28;20045;-73
2023/09/21 02:46:51;;;;;;;5.10;2.63;;;;;;;;;;5082893;28;20048;-63
2023/09/21 02:49:16;;;;;;;4.45;2.45;;;21.60;93.40;;;;;;5066396;28;20052;-62
2023/09/21 02:51:44;;;;;;;3.85;2.03;;;21.60;93.30;;;;;;5074530;28;20105;-62
2023/09/21 02:54:11;;;;;;;4.40;2.50;;;21.60;93.30;;;;;;5092052;28;20040;-63
2023/09/21 02:56:37;;;;;;;4.55;2.30;;;;;;;;;;5072327;28;20044;-67
2023/09/21 02:59:03;;;;;;;5.80;2.50;;;21.70;91.40;;;;;;5073899;28;20036;-74
2023/09/21 03:01:30;;;;;;;4.10;2.10;;;21.60;93.30;;;;;;5072616;28;20044;-74
2023/09/21 03:03:56;;;;;;;5.70;2.40;;;;;;;;;;5091770;28;20037;-74
2023/09/21 03:06:22;;;;;;;5.90;2.30;;;21.40;93.20;;;;;;5090907;28;20443;-73
2023/09/21 03:08:48;;;;;;;4.03;2.25;;;;;;;;;;5072374;28;20474;-73
2023/09/21 03:11:14;;;;;;;5.20;2.22;;;21.50;93.20;;;;;;5073769;28;20043;-74
2023/09/21 03:13:40;;;;;;;3.47;2.17;;;;;;;;;;5053926;28;20474;-74
2023/09/21 03:16:12;;;;;;;5.57;2.30;;;;;;;;;;5050339;28;20044;-74
2023/09/21 03:18:38;;;;;;;5.15;2.38;;;21.50;93.30;;;;;;5041309;28;20114;-75
2023/09/21 03:21:14;;;;;;;4.68;2.25;;;21.60;92.40;;;;;;5048722;28;20036;-74
2023/09/21 03:23:40;;;;;;;4.43;2.42;;;21.60;93.20;;;;;;5073419;28;20121;-75
2023/09/21 03:26:10;;;;;;;4.72;2.30;;;21.50;92.00;;;;;;5055587;28;20130;-75
2023/09/21 03:28:38;;;;;;;4.18;2.30;;;;;;;;;;5073387;28;20044;-74
2023/09/21 03:31:04;;;;;;;4.22;2.20;;;21.70;93.30;;;;;;5071291;28;20036;-74
2023/09/21 03:33:30;;;;;;;5.38;2.30;;;21.60;93.20;;;;;;5091949;28;20047;-74
2023/09/21 03:35:57;;;;;;;4.88;2.17;;;;;;;;;;5054299;28;20067;-75
2023/09/21 03:38:23;;;;;;;5.93;2.30;;;;;;;;;;5071966;28;20682;-75
2023/09/21 03:40:49;;;;;;;6.47;2.95;;;21.40;93.10;;;;;;5056194;28;20044;-74
2023/09/21 03:43:15;;;;;;;4.20;2.10;;;;;;;;;;5038616;28;20143;-74
2023/09/21 03:45:43;;;;;;;4.65;2.25;;;21.60;91.90;;;;;;5089891;28;20032;-74
2023/09/21 03:48:12;;;;;;;4.45;2.22;;;;;;;;;;5040599;28;20040;-75
2023/09/21 03:50:39;;;;;;;5.88;2.35;;;21.50;91.90;;;;;;5058821;28;20483;-75
2023/09/21 03:53:08;;;;;;;5.63;2.45;;;;;;;;;;5076291;28;20055;-74
2023/09/21 03:55:34;;;;;;;5.15;2.22;;;;;;;;;;5094298;28;20131;-74
2023/09/21 03:58:02;;;;;;;5.22;2.50;;;;;;;;;;5075026;28;20051;-74
2023/09/21 04:03:04;;;;;;;6.55;2.30;;;21.30;93.00;;;;;;5093568;28;20056;-74
2023/09/21 04:05:35;;;;;;;5.03;2.40;;;;;;;;;;5074368;28;20127;-74
2023/09/21 04:08:01;;;;;;;5.65;2.40;;;;;;;;;;5091207;28;20507;-73
2023/09/21 04:10:27;;;;;;;4.43;2.22;;;;;;;;;;5094217;28;20040;-74
2023/09/21 04:12:56;;;;;;;5.15;2.20;;;21.20;93.00;;;;;;5095061;28;20048;-74
2023/09/21 04:15:27;;;;;;;4.30;2.10;;;21.40;91.90;;;;;;5072536;28;20048;-74
2023/09/21 04:17:54;;;;;;;4.35;2.10;;;;;;;;;;5090361;28;20044;-74
2023/09/21 04:20:21;;;;;;;5.03;2.42;;;21.30;93.00;;;;;;5088433;28;20036;-74
2023/09/21 04:22:49;;;;;;;4.75;2.38;;;;;;;;;;5074224;28;20040;-74
2023/09/21 04:25:16;;;;;;;4.03;2.33;;;;;;;;;;5042899;28;20072;-74
2023/09/21 04:27:43;;;;;;;4.40;2.20;;;21.40;93.10;;;;;;5076692;28;20171;-74
2023/09/21 04:30:13;;;;;;;3.80;2.20;;;21.50;93.10;;;;;;5074168;28;20452;-63
2023/09/21 04:32:44;;;;;;;4.00;2.20;;;21.60;93.10;;;;;;5075335;28;20099;-74
2023/09/21 04:35:10;;;;;;;6.43;2.40;;;21.30;93.00;;;;;;5041954;28;20134;-74
2023/09/21 04:37:39;;;;;;;4.43;2.10;;;;;;;;;;5075731;28;20086;-74
2023/09/21 04:40:10;;;;;;;4.15;2.28;;;21.50;93.10;;;;;;5093128;28;20126;-74
2023/09/21 04:42:40;;;;;;;4.57;2.13;;;21.40;93.10;;;;;;5091394;28;20076;-74
2023/09/21 04:45:08;;;;;;;4.50;2.20;;;21.50;93.00;;;;;;5089447;28;20126;-64
2023/09/21 04:47:36;;;;;;;7.50;2.65;;;21.50;93.10;;;;;;5093291;28;20377;-64
2023/09/21 04:50:01;;;;;;;3.58;2.00;;;21.50;93.00;;;;;;5093649;28;20405;-66
2023/09/21 04:52:27;;;;;;;5.80;2.40;;;21.40;93.10;;;;;;5076225;28;20044;-64
2023/09/21 04:54:53;;;;;;;3.75;1.95;;;21.30;93.10;;;;;;5074849;28;20056;-64
2023/09/21 04:57:19;;;;;;;4.38;2.20;;;21.50;93.10;;;;;;5094310;28;20386;-65
2023/09/21 04:59:46;;;;;;;5.07;2.30;;;;;;;;;;5075952;28;20074;-64
2023/09/21 05:02:12;;;;;;;4.13;2.40;;;21.40;92.60;;;;;;5090124;28;20132;-62
2023/09/21 05:04:38;;;;;;;3.67;2.08;;;21.40;93.10;;;;;;5049743;28;20056;-74
2023/09/21 05:07:05;;;;;;;4.40;2.25;;;21.40;93.20;;;;;;5054354;28;20047;-74
2023/09/21 05:09:32;;;;;;;6.38;2.40;;;;;;;;;;5075243;28;20083;-74
2023/09/21 05:11:58;;;;;;;4.13;2.20;;;21.40;93.10;;;;;;5093574;28;20047;-74
2023/09/21 05:14:25;;;;;;;4.78;2.30;;;;;;;;;;5072259;28;20139;-73
2023/09/21 05:16:56;;;;;;;4.50;2.15;;;;;;;;;;5072986;28;20044;-74
2023/09/21 05:19:23;;;;;;;4.03;2.30;;;;;;;;;;5074784;28;20143;-73
2023/09/21 05:21:49;;;;;;;4.75;2.40;;;21.50;93.20;;;;;;5037050;28;20051;-70
2023/09/21 05:24:16;;;;;;;4.47;2.28;;;;;;;;;;5072483;28;20028;-74
2023/09/21 05:26:42;;;;;;;4.32;2.25;;;;;;;;;;5067427;28;20432;-74
2023/09/21 05:29:09;;;;;;;5.45;2.20;;;;;;;;;;5092394;28;20109;-75
2023/09/21 05:31:35;;;;;;;3.83;2.10;;;;;;;;;;5074239;28;22198;-74
2023/09/21 05:34:02;;;;;;;4.47;2.38;;;;;;;;;;5073634;28;20131;-74
2023/09/21 05:36:30;;;;;;;4.90;2.20;;;;;;;;;;5060298;28;20106;-74
2023/09/21 05:38:56;;;;;;;4.30;2.13;;;;;;;;;;5054682;28;20397;-73
2023/09/21 05:41:22;;;;;;;3.75;2.00;;;21.50;93.10;;;;;;5055696;28;20090;-74
2023/09/21 05:43:49;;;;;;;5.72;2.33;;;;;;;;;;5063041;22;20464;-74
2023/09/21 05:46:15;;;;;;;4.15;2.30;;;21.70;93.20;;;;;;5033172;28;20061;-74
2023/09/21 05:48:45;;;;;;;4.95;2.13;;;;;;;;;;5011018;28;20049;-74
2023/09/21 05:51:14;;;;;;;4.53;2.45;;;;;;;;;;5008061;28;20045;-74
2023/09/21 05:53:41;;;;;;;4.30;2.13;;;;;;;;;;5013476;28;20400;-75
2023/09/21 05:56:07;;;;;;;4.25;2.30;;;21.70;93.00;;;;;;5030139;28;20336;-74
2023/09/21 05:58:36;;;;;;;4.75;2.30;;;;;;;;;;5010082;28;20073;-74
2023/09/21 06:01:02;;;;;;;4.63;2.42;;;;;;;;;;5010094;28;20065;-74
2023/09/21 06:03:29;;;;;;;4.22;2.38;;;21.70;92.70;;;;;;5021302;28;20100;-74
2023/09/21 06:05:55;;;;;;;4.15;2.05;;;;;;;;;;5010180;28;20049;-72
2023/09/21 06:08:21;;;;;;;6.00;2.30;;;21.80;92.70;;;;;;5027457;28;20081;-72
2023/09/21 06:10:50;;;;;;;4.50;2.20;;;21.90;92.60;;;;;;5009889;28;20121;-70
2023/09/21 06:13:16;;;;;;;4.95;2.20;;;21.90;92.60;;;;;;5009026;28;20373;-75
2023/09/21 06:15:50;;;;;;;4.60;2.38;;;21.90;92.50;;;;;;5032777;28;20464;-74
2023/09/21 06:18:17;;;;;;;3.63;2.00;;;;;;;;;;5010018;28;20056;-69
2023/09/21 06:20:45;;;;;;;4.18;2.20;;;22.30;91.30;;;;;;5021205;28;20125;-73
2023/09/21 06:23:12;;;;;;;4.22;2.33;;;;;;;;;;4961294;28;20450;-69
2023/09/21 06:25:38;;;;;;;4.93;2.53;;;21.90;92.40;;;;;;4992168;28;20042;-72
2023/09/21 06:28:04;;;;;;;5.28;2.33;;;21.90;92.50;;;;;;4978678;28;20050;-73
2023/09/21 06:30:32;;;;;;;4.13;2.30;;;;;;;;;;4962313;28;20108;-75
2023/09/21 06:33:01;;;;;;;6.18;2.30;;;22.00;92.40;;;;;;5006480;28;20050;-67
2023/09/21 06:35:27;;;;;;;4.30;2.00;;;22.30;91.40;;;;;;5008440;28;20041;-68
2023/09/21 06:37:57;;;;;;;5.43;2.25;;;;;;;;;;5029879;28;20045;-72
2023/09/21 06:40:26;;;;;;;4.18;2.20;;;;;;;;;;5031675;28;20498;-73
2023/09/21 06:42:52;;;;;;;3.38;1.95;;;;;;;;;;5012465;28;20062;-74
2023/09/21 06:45:19;;;;;;;5.22;2.50;;;22.00;92.40;;;;;;5004186;28;20525;-65
2023/09/21 06:47:49;;;;;;;5.35;2.10;;;22.20;92.40;;;;;;5000746;28;20095;-68
2023/09/21 06:50:15;;;;;;;4.65;2.05;;;;;;;;;;5048922;28;20112;-71
2023/09/21 06:52:44;;;;;;;4.40;2.03;;;22.10;92.60;;;;;;5028099;28;20084;-66
2023/09/21 06:55:15;;;;;;;5.03;2.20;;;22.40;91.50;;;;;;5019176;28;20506;-70
2023/09/21 06:57:44;;;;;;;4.93;2.30;;;22.30;90.90;;;;;;5018114;28;20120;-70
2023/09/21 07:00:11;;;;;;;4.15;2.30;;;22.00;92.50;;;;;;5014714;28;20375;-68
2023/09/21 07:02:40;;;;;;;3.90;2.30;;;22.40;91.10;;;;;;5036781;28;20477;-72
2023/09/21 07:05:07;;;;;;;4.43;2.28;;;22.30;92.40;;;;;;5025490;28;20056;-71
2023/09/21 07:07:34;;;;;;;5.22;2.40;;;22.50;91.20;;;;;;5034479;28;20075;-69
2023/09/21 07:10:05;;;;;;;4.70;2.17;;;22.30;92.50;;;;;;5048833;28;20048;-69
2023/09/21 07:12:31;;;;;;;5.53;2.53;;;;;;;;;;5049033;28;20117;-73
2023/09/21 07:15:00;;;;;;;4.57;2.50;;;22.30;92.40;;;;;;5031636;28;20055;-72
2023/09/21 07:17:29;;;;;;;6.85;2.50;;;22.40;92.70;;;;;;5014405;28;20537;-68
2023/09/21 07:19:55;;;;;;;3.85;2.20;;;;;;;;;;5041254;28;20102;-69
2023/09/21 07:22:22;;;;;;;5.15;2.47;;;;;;;;;;5017398;28;20056;-72
2023/09/21 07:24:48;;;;;;;5.72;2.70;;;;;;;;;;5049952;28;20052;-72
2023/09/21 07:27:16;;;;;;;4.32;2.20;;;22.20;92.30;;;;;;5054739;28;20057;-72
2023/09/21 07:29:42;;;;;;;6.00;2.70;;;22.10;92.20;;;;;;5054958;28;20386;-62
2023/09/21 07:32:11;;;;;;;5.10;2.60;;;22.20;92.20;;;;;;5035467;28;20033;-68
2023/09/21 07:34:37;;;;;;;4.53;2.50;;;;;;;;;;5035662;28;20045;-68
2023/09/21 07:37:10;;;;;;;4.38;2.30;;;22.20;91.00;;;;;;5054802;28;20110;-69
2023/09/21 07:39:36;;;;;;;4.73;2.40;;;;;;;;;;5021679;28;20135;-72
2023/09/21 07:42:04;;;;;;;5.40;2.60;;;22.80;92.50;;;;;;5049916;28;20776;-72
2023/09/21 07:44:44;;;;;;;4.78;2.60;;;22.30;92.20;;;;;;5035291;28;20092;-69
2023/09/21 07:47:10;;;;;;;4.70;2.67;;;22.20;92.20;;;;;;5037105;28;20098;-71
2023/09/21 07:49:39;;;;;;;5.30;2.55;;;22.20;92.20;;;;;;5035655;28;20060;-71
2023/09/21 07:52:09;;;;;;;4.88;2.47;;;22.20;92.20;;;;;;5031988;28;20044;-66
2023/09/21 07:54:36;;;;;;;4.60;2.38;;;;;;;;;;5031379;28;20557;-72
2023/09/21 07:57:03;;;;;;;5.05;2.47;;;22.30;92.20;;;;;;5049655;28;20041;-75
2023/09/21 07:59:36;;;;;;;6.38;2.60;;;;;;;;;;5010854;28;20536;-64
2023/09/21 08:02:03;;;;;;;4.93;2.50;;;22.30;92.20;;;;;;5027259;28;20493;-67
2023/09/21 08:04:29;;;;;;;7.10;3.10;;;22.40;92.30;;;;;;5004289;28;20410;-73
2023/09/21 08:06:59;;;;;;;4.78;2.22;;;;;;;;;;5051128;28;20080;-64
2023/09/21 08:09:25;;;;;;;6.70;2.80;;;22.40;92.20;;;;;;5028312;28;20060;-70
2023/09/21 08:11:51;;;;;;;5.45;2.50;;;22.40;92.20;;;;;;5035676;28;20106;-75
2023/09/21 08:14:18;;;;;;;6.60;2.65;;;22.30;92.10;;;;;;5017462;28;20136;-71
2023/09/21 08:16:45;;;;;;;4.97;2.65;;;22.50;92.50;;;;;;5035083;28;20049;-73
2023/09/21 08:19:11;;;;;;;5.18;2.55;;;22.30;91.00;;;;;;5052173;28;20411;-73
2023/09/21 08:21:37;;;;;;;6.30;2.38;;;22.50;91.20;;;;;;5035815;28;20052;-66
2023/09/21 08:24:04;;;;;;;6.85;2.60;;;22.50;92.00;;;;;;5033423;28;20059;-75
2023/09/21 08:26:30;;;;;;;4.78;2.55;;;22.50;90.70;;;;;;5002477;28;20041;-76
2023/09/21 08:28:58;;;;;;;5.38;2.38;;;22.40;92.00;;;;;;5035038;28;20135;-74
2023/09/21 08:31:24;;;;;;;5.05;2.60;;;22.40;92.10;;;;;;5052986;28;20041;-76
2023/09/21 08:33:51;;;;;;;3.97;2.40;;;22.60;92.00;;;;;;5029455;28;20041;-73
2023/09/21 08:36:17;;;;;;;4.93;2.35;;;;;;;;;;5027875;28;20045;-75
2023/09/21 08:38:43;;;;;;;5.78;2.90;;;22.50;91.90;;;;;;5035521;28;20041;-75
2023/09/21 08:41:09;;;;;;;4.47;2.38;;;22.50;92.20;;;;;;5052396;28;20544;-63
2023/09/21 08:43:35;;;;;;;6.22;3.25;;;22.70;92.10;;;;;;5020137;28;20037;-75
2023/09/21 08:46:01;;;;;;;5.88;2.60;;;22.50;91.90;;;;;;5037399;28;20466;-72
2023/09/21 08:48:27;;;;;;;5.70;2.67;;;22.50;90.80;;;;;;5034159;28;20483;-76
2023/09/21 08:50:53;;;;;;;5.90;2.60;;;21.20;90.60;;;;;;5014655;28;20038;-74
2023/09/21 08:53:20;;;;;;;5.00;2.50;;;22.40;91.90;;;;;;5021821;28;20112;-74
2023/09/21 08:55:52;;;;;;;6.15;2.55;;;22.60;91.90;;;;;;5028793;28;20041;-74
2023/09/21 08:58:23;;;;;;;6.03;2.67;;;22.60;92.00;;;;;;5031445;28;20037;-75
2023/09/21 09:00:56;;;;;;;6.35;2.25;;;22.40;91.10;;;;;;4997078;28;20046;-74
2023/09/21 09:03:25;;;;;;;5.78;2.60;;;22.20;90.50;;;;;;4996099;28;20076;-75
2023/09/21 09:05:53;;;;;;;5.55;2.70;;;22.50;92.00;;;;;;5027699;28;20073;-64
2023/09/21 09:08:19;;;;;;;5.30;2.63;;;22.40;91.00;;;;;;5005025;28;20120;-63
2023/09/21 09:10:45;;;;;;;5.72;2.50;;;22.40;92.00;;;;;;5012668;28;20060;-63
2023/09/21 09:13:11;;;;;;;5.00;3.00;;;22.40;92.00;;;;;;5009032;28;20050;-74
2023/09/21 09:15:45;;;;;;;5.25;2.33;;;22.40;92.00;;;;;;5012437;28;20112;-74
2023/09/21 09:18:13;;;;;;;7.18;2.70;;;22.50;92.10;;;;;;4990290;28;20092;-63
2023/09/21 09:20:44;;;;;;;5.05;2.50;;;22.60;91.10;;;;;;5018925;28;20573;-74
2023/09/21 09:23:13;;;;;;;14.35;3.15;;;22.50;92.50;;;;;;4976797;28;20465;-72
2023/09/21 09:25:40;;;;;;;13.75;3.22;;;22.50;92.40;;;;;;4983363;28;20046;-68
2023/09/21 09:28:09;;;;;;;10.80;3.47;;;;;;;;;;5010407;28;20046;-63
2023/09/21 09:30:38;;;;;;;8.07;3.30;;;22.60;91.10;;;;;;4999637;28;20034;-72
2023/09/21 09:33:15;;;;;;;10.45;3.22;;;22.50;92.40;;;;;;5003313;28;20557;-70
2023/09/21 09:35:42;;;;;;;9.15;3.42;;;22.50;92.80;;;;;;5027493;28;20545;-71
2023/09/21 09:38:11;;;;;;;38.70;4.70;;;22.50;92.80;;;;;;5028236;28;20529;-73
2023/09/21 09:40:42;;;;;;;6.15;3.22;;;22.40;93.10;;;;;;4994333;28;20452;-74
2023/09/21 09:43:08;;;;;;;13.85;3.88;;;;;;;;;;4999509;28;20100;-80
2023/09/21 09:45:37;;;;;;;13.15;3.03;;;22.40;93.00;;;;;;5015807;28;20124;-75
2023/09/21 09:48:11;;;;;;;9.70;3.20;;;22.20;93.00;;;;;;5032643;28;20129;-73
2023/09/21 09:50:41;;;;;;;8.57;3.38;;;22.10;93.40;;;;;;5031741;28;20486;-75
2023/09/21 09:53:10;;;;;;;9.20;3.15;;;;;;;;;;5049551;28;20052;-76
2023/09/21 09:55:37;;;;;;;8.32;3.20;;;;;;;;;;5043939;28;20110;-75
2023/09/21 09:58:03;;;;;;;6.50;3.08;;;22.10;93.70;;;;;;5042328;28;20044;-75
2023/09/21 10:00:30;;;;;;;7.43;3.15;;;22.10;92.20;;;;;;5032251;28;20041;-76
2023/09/21 10:02:56;;;;;;;7.03;3.45;;;21.90;93.60;;;;;;5038077;28;20190;-76
2023/09/21 10:05:26;;;;;;;8.35;3.10;;;21.80;94.20;;;;;;5033772;28;20044;-76
2023/09/21 10:07:54;;;;;;;6.45;3.00;;;21.80;92.70;;;;;;5037955;28;20049;-80
2023/09/21 10:10:24;;;;;;;9.45;3.55;;;22.10;93.00;;;;;;5067893;28;20090;-75
2023/09/21 10:12:51;;;;;;;6.10;3.17;;;;;;;;;;5034828;28;20558;-75
2023/09/21 10:15:18;;;;;;;7.85;3.47;;;21.60;92.20;;;;;;5028185;28;20045;-75
2023/09/21 10:17:44;;;;;;;6.63;3.00;;;22.00;94.30;;;;;;5022729;28;20045;-75
2023/09/21 10:20:16;;;;;;;7.68;3.13;;;22.00;94.40;;;;;;5044670;28;20052;-75
2023/09/21 10:22:46;;;;;;;7.50;3.87;;;21.80;94.50;;;;;;5034845;28;20049;-75
2023/09/21 10:25:12;;;;;;;5.40;3.42;;;21.80;94.70;;;;;;5010876;28;20307;-76
2023/09/21 10:27:39;;;;;;;6.97;3.60;;;;;;;;;;5048636;28;20033;-71
2023/09/21 10:30:15;;;;;;;7.20;3.33;;;21.80;94.90;;;;;;5034193;28;20485;-73
2023/09/21 10:32:41;;;;;;;7.13;3.35;;;;;;;;;;5040909;28;20087;-72
2023/09/21 10:35:11;;;;;;;8.20;3.65;;;21.70;93.50;;;;;;5042108;28;20056;-72
2023/09/21 10:37:37;;;;;;;9.23;3.22;;;21.80;95.10;;;;;;5005804;28;20053;-76
2023/09/21 10:40:08;;;;;;;6.63;2.92;;;21.90;94.10;;;;;;4996005;28;20060;-77
2023/09/21 10:42:36;;;;;;;13.25;3.78;;;21.70;95.10;;;;;;5002263;28;20128;-77
2023/09/21 10:45:04;;;;;;;11.25;3.60;;;21.90;95.10;;;;;;5044493;28;20099;-75
2023/09/21 10:47:33;;;;;;;13.07;3.50;;;21.90;93.80;;;;;;5045232;28;20072;-75
2023/09/21 10:50:10;;;;;;;10.07;3.00;;;21.90;95.00;;;;;;5020338;28;20053;-77
2023/09/21 10:52:39;;;;;;;7.05;3.00;;;22.00;94.90;;;;;;5015519;28;20398;-77
2023/09/21 10:55:09;;;;;;;8.20;3.10;;;22.10;94.90;;;;;;5001515;28;20045;-76
2023/09/21 10:57:35;;;;;;;6.88;3.30;;;;;;;;;;4981692;28;20077;-76
2023/09/21 11:00:04;;;;;;;7.75;3.17;;;22.20;94.80;;;;;;5024637;28;20041;-78
2023/09/21 11:02:31;;;;;;;6.63;3.00;;;22.00;95.10;;;;;;5051509;28;20045;-76
2023/09/21 11:04:58;;;;;;;8.75;3.17;;;;;;;;;;5037710;28;20056;-78
2023/09/21 11:07:25;;;;;;;8.00;2.83;;;22.00;94.80;;;;;;5070514;28;20045;-77
2023/09/21 11:09:52;;;;;;;7.60;2.90;;;;;;;;;;5017831;28;20483;-63
2023/09/21 11:12:18;;;;;;;6.60;3.03;;;;;;;;;;5035859;28;20045;-76
2023/09/21 11:14:47;;;;;;;7.88;3.00;;;22.20;94.70;;;;;;5019264;28;20037;-74
2023/09/21 11:17:18;;;;;;;5.72;2.88;;;22.20;94.80;;;;;;5033031;28;20427;-78
2023/09/21 11:19:46;;;;;;;6.97;3.17;;;22.00;93.40;;;;;;5052204;28;20053;-80
2023/09/21 11:22:13;;;;;;;6.22;3.13;;;22.20;93.20;;;;;;5052727;28;20041;-79
2023/09/21 11:24:40;;;;;;;6.25;2.60;;;;;;;;;;5063433;28;20146;-78
2023/09/21 11:27:10;;;;;;;7.90;2.75;;;22.30;94.60;;;;;;5040020;28;20040;-78
2023/09/21 11:29:41;;;;;;;6.05;2.40;;;20.30;93.10;;;;;;5015904;28;20120;-74
2023/09/21 11:32:19;;;;;;;7.32;2.80;;;22.40;94.60;;;;;;5035183;28;20106;-74
2023/09/21 11:34:51;;;;;;;6.43;2.90;;;22.40;93.20;;;;;;5014311;28;20398;-78
2023/09/21 11:37:22;;;;;;;6.10;2.88;;;21.80;92.60;;;;;;5037667;28;20045;-70
2023/09/21 11:39:51;;;;;;;5.90;2.47;;;22.40;94.50;;;;;;5014664;28;20045;-74
2023/09/21 11:42:19;;;;;;;5.75;2.70;;;22.30;94.70;;;;;;5003210;28;20053;-79
2023/09/21 11:44:51;;;;;;;5.15;2.60;;;22.40;93.40;;;;;;5035527;28;20080;-79
2023/09/21 11:47:18;;;;;;;6.32;2.78;;;;;;;;;;5052535;28;20136;-69
2023/09/21 11:49:45;;;;;;;6.35;2.47;;;22.40;94.60;;;;;;5036817;28;20529;-78
2023/09/21 11:52:13;;;;;;;6.10;2.60;;;22.40;94.50;;;;;;5032236;28;20041;-76
2023/09/21 11:54:40;;;;;;;5.40;2.72;;;22.50;94.90;;;;;;5049477;28;20560;-78
2023/09/21 11:57:09;;;;;;;6.60;2.90;;;22.40;94.50;;;;;;5037561;28;20410;-77
2023/09/21 11:59:39;;;;;;;5.78;2.75;;;22.60;94.70;;;;;;5033714;28;20049;-79
2023/09/21 12:02:09;;;;;;;7.00;2.50;;;22.50;94.60;;;;;;5034639;28;20059;-77
2023/09/21 12:04:39;;;;;;;5.75;2.67;;;22.70;95.20;;;;;;5003201;28;20076;-80
2023/09/21 12:07:05;;;;;;;5.30;2.50;;;22.50;94.50;;;;;;5036636;28;20136;-80
2023/09/21 12:09:36;;;;;;;12.63;2.80;;;22.60;93.30;;;;;;5018124;28;20053;-79
2023/09/21 12:12:04;;;;;;;10.27;3.60;;;22.60;94.50;;;;;;5041907;28;20525;-80
2023/09/21 12:14:30;;;;;;;16.30;3.67;;;22.50;95.00;;;;;;5009904;28;20049;-79
2023/09/21 12:17:01;;;;;;;9.80;3.00;;;;;;;;;;5037142;28;20122;-77
2023/09/21 12:19:28;;;;;;;17.77;3.35;;;;;;;;;;5034107;28;20045;-65
2023/09/21 12:21:56;;;;;;;15.43;3.45;;;22.60;94.40;;;;;;5019748;28;20051;-81
2023/09/21 12:24:22;;;;;;;10.23;2.83;;;22.60;94.60;;;;;;5034646;28;20040;-75
2023/09/21 12:26:49;;;;;;;13.85;3.40;;;22.50;94.50;;;;;;5014228;28;20068;-71
2023/09/21 12:29:17;;;;;;;16.27;3.50;;;22.80;94.90;;;;;;5017791;28;20068;-73
2023/09/21 12:31:45;;;;;;;15.32;3.42;;;22.80;94.80;;;;;;5017828;28;20041;-71
2023/09/21 12:34:14;;;;;;;12.30;3.20;;;22.60;94.30;;;;;;5026717;28;20048;-73
2023/09/21 12:36:48;;;;;;;17.50;3.10;;;22.80;94.30;;;;;;4994226;28;20084;-74
2023/09/21 12:39:16;;;;;;;21.65;3.20;;;22.80;94.60;;;;;;5016521;28;20430;-75
2023/09/21 12:41:45;;;;;;;12.48;2.97;;;;;;;;;;5019193;28;20391;-78
2023/09/21 12:44:15;;;;;;;12.65;2.80;;;22.70;94.10;;;;;;5029154;28;20402;-69
2023/09/21 12:46:42;;;;;;;19.73;3.08;;;22.70;94.10;;;;;;4996080;28;20053;-73
2023/09/21 12:49:08;;;;;;;15.73;3.00;;;23.00;94.30;;;;;;5012731;28;20057;-70
2023/09/21 12:51:35;;;;;;;18.90;3.28;;;;;;;;;;5048293;28;20124;-73
2023/09/21 12:54:02;;;;;;;12.95;2.90;;;22.80;94.10;;;;;;5023442;28;20140;-73
2023/09/21 12:56:32;;;;;;;14.20;3.30;;;22.80;94.10;;;;;;5017366;28;20049;-68
2023/09/21 12:58:59;;;;;;;14.40;2.80;;;22.90;94.20;;;;;;5027580;28;20068;-71
2023/09/21 13:01:29;;;;;;;15.00;3.25;;;21.10;92.60;;;;;;4990420;28;20034;-76
2023/09/21 13:03:55;;;;;;;18.25;3.20;;;;;;;;;;5022142;28;20053;-73
2023/09/21 13:06:22;;;;;;;16.02;3.20;;;22.50;94.20;;;;;;5028791;28;20038;-77
2023/09/21 13:08:51;;;;;;;15.20;3.25;;;22.70;94.20;;;;;;5030319;28;20106;-74
2023/09/21 13:11:21;;;;;;;14.50;3.70;;;22.70;94.20;;;;;;5022738;28;20045;-77
2023/09/21 13:13:47;;;;;;;12.50;3.20;;;;;;;;;;5026599;28;20465;-79
2023/09/21 13:16:14;;;;;;;11.57;2.85;;;22.80;94.10;;;;;;5008790;28;20509;-76
2023/09/21 13:18:40;;;;;;;15.07;3.00;;;;;;;;;;5030873;28;20064;-80
2023/09/21 13:21:15;;;;;;;14.85;3.00;;;22.70;94.10;;;;;;5015547;28;20124;-75